Flight Track Log - Related Links

Times and Time Zones

All times are in EDT time to prevent confusion due to time zone crossing. See the RPA3228 flight status page for this flight to view local times or setup timezone preferences in your user account.

Time Position Orientation Groundspeed Altitude Reporting Facility
EDT Latitude Longitude Course Direction KTS MPH feet Rate Location/Type
Sun 07:56:19 AM 32.9811 -80.0103 13° North 229 264 2,900  Level Jacksonville Center
Sun 07:57:00 AM 33.1581 -79.9500 North  Level FlightAware Approximate
Sun 07:57:19 AM 33.0517 -79.9906 13° North 260 299 5,500  Level Jacksonville Center
Sun 07:58:00 AM 33.2508 -79.9265 North  Level FlightAware Approximate
Sun 07:58:19 AM 33.1286 -79.9708 12° North 296 341 8,000  Level Jacksonville Center
Sun 07:59:00 AM 33.3418 -79.8958 23° Northeast  Level FlightAware Approximate
Sun 07:59:19 AM 33.2136 -79.9456 14° North 315 362 10,800  Level Jacksonville Center
Sun 08:00:00 AM 33.4339 -79.8699 North  Level FlightAware Approximate
Sun 08:00:19 AM 33.3067 -79.9178 14° North 325 374 13,200  Level Jacksonville Center
Sun 08:01:00 AM 33.5371 -79.8418 13° North  Level FlightAware Approximate
Sun 08:01:19 AM 33.3994 -79.8622 27° Northeast 337 388 15,500  Level Jacksonville Center
Sun 08:02:19 AM 33.4897 -79.7994 30° Northeast 357 411 17,800 2,150 Climbing Jacksonville Center
Sun 08:03:19 AM 33.5881 -79.7311 30° Northeast 377 434 19,800 2,150 Climbing Jacksonville Center
Sun 08:04:19 AM 33.6908 -79.6625 29° Northeast 398 458 22,100 2,000 Climbing Jacksonville Center
Sun 08:05:19 AM 33.7931 -79.5889 31° Northeast 412 474 23,800 1,550 Climbing Jacksonville Center
Sun 08:06:19 AM 33.8997 -79.5172 29° Northeast 423 487 25,200 1,250 Climbing Jacksonville Center
Sun 08:07:19 AM 34.0083 -79.4406 30° Northeast 428 493 26,300 1,200 Climbing Jacksonville Center
Sun 08:08:19 AM 34.1086 -79.3764 28° Northeast 434 499 27,600 876 Climbing Jacksonville Center
Sun 08:10:24 AM 34.3506 -79.2167 29° Northeast 474 545 29,000 454 Climbing Washington Center
Sun 08:11:24 AM 34.4717 -79.1464 26° Northeast 474 545 29,000  Level Washington Center
Sun 08:12:24 AM 34.5925 -79.0761 26° Northeast 474 545 29,000  Level Washington Center
Sun 08:13:24 AM 34.7114 -79.0078 25° Northeast 474 545 29,000  Level Washington Center
Sun 08:14:24 AM 34.8325 -78.9369 26° Northeast 474 545 29,000  Level Washington Center
Sun 08:15:24 AM 34.9511 -78.8658 26° Northeast 468 539 29,000  Level Washington Center
Sun 08:16:24 AM 35.0742 -78.7947 25° Northeast 473 544 29,000  Level Washington Center
Sun 08:17:24 AM 35.2014 -78.7211 25° Northeast 479 551 29,000  Level Washington Center
Sun 08:18:24 AM 35.3219 -78.6494 26° Northeast 479 551 29,000  Level Washington Center
Sun 08:19:24 AM 35.4575 -78.5703 25° Northeast 479 551 29,000  Level Washington Center
Sun 08:20:24 AM 35.5783 -78.4958 27° Northeast 479 551 29,000  Level Washington Center
Sun 08:21:24 AM 35.7031 -78.4261 24° Northeast 486 559 29,000 -250 Level Washington Center
Sun 08:22:24 AM 35.8239 -78.3536 26° Northeast 481 554 28,500 -750 Descending Washington Center
Sun 08:23:24 AM 35.9422 -78.2833 26° Northeast 471 542 27,500 -750 Descending Washington Center
Sun 08:24:24 AM 36.0586 -78.2128 26° Northeast 466 536 27,000 -250 Descending Washington Center
Sun 08:25:24 AM 36.1686 -78.1444 27° Northeast 454 522 27,000  Level Washington Center
Sun 08:26:24 AM 36.2783 -78.0783 26° Northeast 449 517 27,000  Level Washington Center
Sun 08:27:24 AM 36.3925 -78.0097 26° Northeast 449 517 27,000  Level Washington Center
Sun 08:28:24 AM 36.5022 -77.9408 27° Northeast 449 517 27,000  Level Washington Center
Sun 08:29:24 AM 36.6164 -77.8692 27° Northeast 454 522 27,000 -350 Level Washington Center
Sun 08:30:24 AM 36.7322 -77.8131 21° North 449 517 26,300 -800 Descending Washington Center
Sun 08:31:24 AM 36.8458 -77.7669 18° North 437 503 25,400 -650 Descending Washington Center
Sun 08:32:24 AM 36.9614 -77.7181 19° North 432 497 25,000 -200 Descending Washington Center
Sun 08:33:24 AM 37.0811 -77.6694 18° North 432 497 25,000 -50 Level Washington Center
Sun 08:34:24 AM 37.2008 -77.6178 19° North 442 509 24,900 -550 Descending Washington Center
Sun 08:35:24 AM 37.3186 -77.5686 18° North 442 509 23,900 -1,200 Descending Washington Center
Sun 08:36:24 AM 37.4383 -77.5169 19° North 442 509 22,500 -1,550 Descending Washington Center
Sun 08:37:24 AM 37.5494 -77.4725 18° North 436 502 20,800 -1,650 Descending Washington Center
Sun 08:38:24 AM 37.6586 -77.4281 18° North 424 488 19,200 -1,600 Descending Washington Center
Sun 08:39:24 AM 37.7658 -77.3808 19° North 414 476 17,600 -1,500 Descending Washington Center
Sun 08:40:24 AM 37.8603 -77.3383 20° North 384 442 16,200 -1,300 Descending Washington Center
Sun 08:41:24 AM 37.9419 -77.3058 17° North 340 391 15,000 -1,150 Descending Washington Center
Sun 08:42:24 AM 38.0217 -77.2708 19° North 312 359 13,900 -650 Descending Washington Center
Sun 08:43:24 AM 38.1014 -77.2356 19° North 290 334 13,700 -950 Descending Washington Center
Sun 08:44:24 AM 38.1769 -77.2031 19° North 290 334 12,000 -1,550 Descending Washington Center
Sun 08:45:24 AM 38.2525 -77.1728 17° North 290 334 10,600 -1,000 Descending Washington Center
Sun 08:46:24 AM 38.3278 -77.1481 14° North 285 328 10,000 -750 Descending Washington Center
Sun 08:47:24 AM 38.4011 -77.1311 10° North 280 322 9,100 -1,300 Descending Washington Center
Sun 08:48:24 AM 38.4722 -77.1139 11° North 274 315 7,400 -1,850 Descending Washington Center
Sun 08:49:24 AM 38.5433 -77.1047 North 263 303 5,400 -2,000 Descending Washington Center
Sun 08:50:24 AM 38.6081 -77.0769 19° North 262 302 3,400 -1,800 Descending Washington Center
Sun 08:50:44 AM 38.6333 -77.0667 18° North 264 304 3,000 -675 Descending Potomac TRACON
Sun 08:51:44 AM 38.7000 -77.0500 11° North 220 253 2,500 -579 Descending Potomac TRACON
Sun 08:52:38 AM 38.7500 -77.0333 15° North 176 203 1,900 -737 Descending Potomac TRACON
Sun 08:53:38 AM 38.7833 -77.0167 21° North 140 161 1,100 -800 Descending Potomac TRACON

Login

Don't have an account? Register now (free) for customized features, flight alerts, and more!